sensor_id;sensor_type;location;lat;lon;timestamp;pressure;altitude;pressure_sealevel;temperature;humidity
13486;BME280;6815;59.336;17.998;2023-02-15T00:00:31;52240.88;;;-145.37;89.85
13486;BME280;6815;59.336;17.998;2023-02-15T00:02:56;52216.91;;;-145.37;89.43
13486;BME280;6815;59.336;17.998;2023-02-15T00:05:23;52204.94;;;-145.37;89.03
13486;BME280;6815;59.336;17.998;2023-02-15T00:07:49;52250.84;;;-145.37;89.86
13486;BME280;6815;59.336;17.998;2023-02-15T00:10:21;52266.81;;;-145.37;88.85
13486;BME280;6815;59.336;17.998;2023-02-15T00:12:46;52246.84;;;-145.37;89.29
13486;BME280;6815;59.336;17.998;2023-02-15T00:15:12;52252.84;;;-145.37;89.04
13486;BME280;6815;59.336;17.998;2023-02-15T00:17:39;52212.91;;;-145.37;88.93
13486;BME280;6815;59.336;17.998;2023-02-15T00:20:05;52242.88;;;-145.37;88.92
13486;BME280;6815;59.336;17.998;2023-02-15T00:22:30;52236.88;;;-145.37;88.43
13486;BME280;6815;59.336;17.998;2023-02-15T00:24:56;52208.94;;;-145.37;88.73
13486;BME280;6815;59.336;17.998;2023-02-15T00:27:22;52244.84;;;-145.37;88.42
13486;BME280;6815;59.336;17.998;2023-02-15T00:29:47;52218.91;;;-145.37;88.49
13486;BME280;6815;59.336;17.998;2023-02-15T00:32:13;52246.84;;;-145.37;88.62
13486;BME280;6815;59.336;17.998;2023-02-15T00:34:38;52214.91;;;-145.37;88.50
13486;BME280;6815;59.336;17.998;2023-02-15T00:37:04;52206.94;;;-145.37;88.23
13486;BME280;6815;59.336;17.998;2023-02-15T00:39:29;52188.97;;;-145.37;88.46
13486;BME280;6815;59.336;17.998;2023-02-15T00:41:55;52220.91;;;-145.37;88.90
13486;BME280;6815;59.336;17.998;2023-02-15T00:44:23;52244.84;;;-145.37;88.52
13486;BME280;6815;59.336;17.998;2023-02-15T00:46:49;52244.84;;;-145.37;88.29
13486;BME280;6815;59.336;17.998;2023-02-15T00:49:14;52190.97;;;-145.37;88.53
13486;BME280;6815;59.336;17.998;2023-02-15T00:51:39;52240.88;;;-145.37;88.03
13486;BME280;6815;59.336;17.998;2023-02-15T00:54:05;52266.81;;;-145.37;88.69
13486;BME280;6815;59.336;17.998;2023-02-15T00:56:31;52232.88;;;-145.37;88.58
13486;BME280;6815;59.336;17.998;2023-02-15T00:58:59;52262.81;;;-145.37;88.55
13486;BME280;6815;59.336;17.998;2023-02-15T01:01:26;52228.88;;;-145.37;88.78
13486;BME280;6815;59.336;17.998;2023-02-15T01:03:52;52232.88;;;-145.37;88.56
13486;BME280;6815;59.336;17.998;2023-02-15T01:06:17;52248.84;;;-145.37;88.50
13486;BME280;6815;59.336;17.998;2023-02-15T01:08:44;52254.84;;;-145.37;88.63
13486;BME280;6815;59.336;17.998;2023-02-15T01:11:12;52252.84;;;-145.37;88.10
13486;BME280;6815;59.336;17.998;2023-02-15T01:13:40;52216.91;;;-145.37;88.38
13486;BME280;6815;59.336;17.998;2023-02-15T01:16:06;52256.84;;;-145.37;88.27
13486;BME280;6815;59.336;17.998;2023-02-15T01:18:32;52246.84;;;-145.37;88.34
13486;BME280;6815;59.336;17.998;2023-02-15T01:20:58;52216.91;;;-145.37;88.53
13486;BME280;6815;59.336;17.998;2023-02-15T01:23:24;52276.81;;;-145.37;87.57
13486;BME280;6815;59.336;17.998;2023-02-15T01:25:50;52218.91;;;-145.37;88.04
13486;BME280;6815;59.336;17.998;2023-02-15T01:28:15;52270.81;;;-145.37;87.82
13486;BME280;6815;59.336;17.998;2023-02-15T01:30:40;52242.88;;;-145.37;88.19
13486;BME280;6815;59.336;17.998;2023-02-15T01:33:10;52238.88;;;-145.37;88.21
13486;BME280;6815;59.336;17.998;2023-02-15T01:35:43;52202.94;;;-145.37;88.14
13486;BME280;6815;59.336;17.998;2023-02-15T01:38:09;52270.81;;;-145.37;87.89
13486;BME280;6815;59.336;17.998;2023-02-15T01:40:34;52218.91;;;-145.37;88.16
13486;BME280;6815;59.336;17.998;2023-02-15T01:43:00;52226.91;;;-145.37;87.93
13486;BME280;6815;59.336;17.998;2023-02-15T01:45:31;52216.91;;;-145.37;88.55
13486;BME280;6815;59.336;17.998;2023-02-15T01:50:55;52196.94;;;-145.37;88.09
13486;BME280;6815;59.336;17.998;2023-02-15T01:53:38;52252.84;;;-145.37;88.14
13486;BME280;6815;59.336;17.998;2023-02-15T01:56:23;52222.91;;;-145.37;87.91
13486;BME280;6815;59.336;17.998;2023-02-15T01:58:51;52234.88;;;-145.37;87.52
13486;BME280;6815;59.336;17.998;2023-02-15T02:01:20;52222.91;;;-145.37;87.93
13486;BME280;6815;59.336;17.998;2023-02-15T02:06:27;52226.91;;;-145.37;87.66
13486;BME280;6815;59.336;17.998;2023-02-15T02:08:54;52264.81;;;-145.37;87.54
13486;BME280;6815;59.336;17.998;2023-02-15T02:11:20;52216.91;;;-145.37;88.02
13486;BME280;6815;59.336;17.998;2023-02-15T02:13:46;52296.75;;;-145.37;88.01
13486;BME280;6815;59.336;17.998;2023-02-15T02:25:12;52206.94;;;-145.37;87.85
13486;BME280;6815;59.336;17.998;2023-02-15T02:38:42;52238.88;;;-145.37;88.46
13486;BME280;6815;59.336;17.998;2023-02-15T02:46:48;52161.03;;;-145.37;88.19
13486;BME280;6815;59.336;17.998;2023-02-15T02:49:15;52226.91;;;-145.37;88.23
13486;BME280;6815;59.336;17.998;2023-02-15T02:51:41;52228.88;;;-145.37;87.95
13486;BME280;6815;59.336;17.998;2023-02-15T02:54:10;52300.75;;;-145.37;88.38
13486;BME280;6815;59.336;17.998;2023-02-15T02:56:43;52244.84;;;-145.37;88.25
13486;BME280;6815;59.336;17.998;2023-02-15T02:59:27;52228.88;;;-145.37;87.51
13486;BME280;6815;59.336;17.998;2023-02-15T03:02:04;52216.91;;;-145.37;87.91
13486;BME280;6815;59.336;17.998;2023-02-15T03:04:35;52228.88;;;-145.37;88.10
13486;BME280;6815;59.336;17.998;2023-02-15T03:07:09;52228.88;;;-145.37;88.11
13486;BME280;6815;59.336;17.998;2023-02-15T03:09:39;52228.88;;;-145.37;87.69
13486;BME280;6815;59.336;17.998;2023-02-15T03:12:16;52222.91;;;-145.37;87.49
13486;BME280;6815;59.336;17.998;2023-02-15T03:14:45;52260.84;;;-145.37;87.23
13486;BME280;6815;59.336;17.998;2023-02-15T03:17:13;52240.88;;;-145.37;88.10
13486;BME280;6815;59.336;17.998;2023-02-15T03:19:40;52226.91;;;-145.37;88.22
13486;BME280;6815;59.336;17.998;2023-02-15T03:22:16;52228.88;;;-145.37;87.87
13486;BME280;6815;59.336;17.998;2023-02-15T03:24:53;52228.88;;;-145.37;87.91
13486;BME280;6815;59.336;17.998;2023-02-15T03:27:28;52220.91;;;-145.37;88.01
13486;BME280;6815;59.336;17.998;2023-02-15T03:29:58;52212.91;;;-145.37;87.76
13486;BME280;6815;59.336;17.998;2023-02-15T03:32:28;52272.81;;;-145.37;87.77
13486;BME280;6815;59.336;17.998;2023-02-15T03:34:55;52240.88;;;-145.37;87.87
13486;BME280;6815;59.336;17.998;2023-02-15T03:37:35;52238.88;;;-145.37;88.00
13486;BME280;6815;59.336;17.998;2023-02-15T03:40:19;52248.84;;;-145.37;87.81
13486;BME280;6815;59.336;17.998;2023-02-15T03:43:32;52238.88;;;-145.37;87.74
13486;BME280;6815;59.336;17.998;2023-02-15T03:46:33;52246.84;;;-145.37;87.20
13486;BME280;6815;59.336;17.998;2023-02-15T03:49:18;52232.88;;;-145.37;87.57
13486;BME280;6815;59.336;17.998;2023-02-15T03:51:48;52208.94;;;-145.37;87.54
13486;BME280;6815;59.336;17.998;2023-02-15T03:54:18;52228.88;;;-145.37;87.43
13486;BME280;6815;59.336;17.998;2023-02-15T03:57:07;52214.91;;;-145.37;87.63
13486;BME280;6815;59.336;17.998;2023-02-15T03:59:54;52248.84;;;-145.37;87.55
13486;BME280;6815;59.336;17.998;2023-02-15T04:05:42;52254.84;;;-145.37;87.82
13486;BME280;6815;59.336;17.998;2023-02-15T04:08:08;52292.78;;;-145.37;87.62
13486;BME280;6815;59.336;17.998;2023-02-15T04:10:34;52234.88;;;-145.37;87.68
13486;BME280;6815;59.336;17.998;2023-02-15T04:13:23;52264.81;;;-145.37;87.68
13486;BME280;6815;59.336;17.998;2023-02-15T04:15:50;52232.88;;;-145.37;87.75
13486;BME280;6815;59.336;17.998;2023-02-15T04:18:35;52230.88;;;-145.37;87.24
13486;BME280;6815;59.336;17.998;2023-02-15T04:21:22;52228.88;;;-145.37;86.98
13486;BME280;6815;59.336;17.998;2023-02-15T04:24:10;52220.91;;;-145.37;87.48
13486;BME280;6815;59.336;17.998;2023-02-15T04:26:55;52206.94;;;-145.37;87.91
13486;BME280;6815;59.336;17.998;2023-02-15T04:29:24;52272.81;;;-145.37;87.12
13486;BME280;6815;59.336;17.998;2023-02-15T04:31:53;52238.88;;;-145.37;87.48
13486;BME280;6815;59.336;17.998;2023-02-15T04:34:18;52198.94;;;-145.37;86.87
13486;BME280;6815;59.336;17.998;2023-02-15T04:36:45;52228.88;;;-145.37;86.75
13486;BME280;6815;59.336;17.998;2023-02-15T04:39:13;52200.94;;;-145.37;86.39
13486;BME280;6815;59.336;17.998;2023-02-15T04:41:43;52228.88;;;-145.37;86.43
13486;BME280;6815;59.336;17.998;2023-02-15T04:44:09;52194.94;;;-145.37;86.16
13486;BME280;6815;59.336;17.998;2023-02-15T04:46:35;52212.91;;;-145.37;86.75
13486;BME280;6815;59.336;17.998;2023-02-15T04:49:00;52208.94;;;-145.37;86.54
13486;BME280;6815;59.336;17.998;2023-02-15T04:51:26;52230.88;;;-145.37;86.87
13486;BME280;6815;59.336;17.998;2023-02-15T04:53:51;52268.81;;;-145.37;86.48
13486;BME280;6815;59.336;17.998;2023-02-15T04:56:20;52212.91;;;-145.37;86.79
13486;BME280;6815;59.336;17.998;2023-02-15T04:58:46;52202.94;;;-145.37;86.75
13486;BME280;6815;59.336;17.998;2023-02-15T05:01:12;52282.78;;;-145.37;86.66
13486;BME280;6815;59.336;17.998;2023-02-15T05:03:42;52240.88;;;-145.37;87.11
13486;BME280;6815;59.336;17.998;2023-02-15T05:06:08;52244.84;;;-145.37;87.04
13486;BME280;6815;59.336;17.998;2023-02-15T05:08:34;52256.84;;;-145.37;86.90
13486;BME280;6815;59.336;17.998;2023-02-15T05:11:00;52238.88;;;-145.37;86.86
13486;BME280;6815;59.336;17.998;2023-02-15T05:13:25;52194.94;;;-145.37;86.33
13486;BME280;6815;59.336;17.998;2023-02-15T05:15:52;52274.81;;;-145.37;86.28
13486;BME280;6815;59.336;17.998;2023-02-15T05:18:20;52212.91;;;-145.37;85.15
13486;BME280;6815;59.336;17.998;2023-02-15T05:20:46;52244.84;;;-145.37;85.54
13486;BME280;6815;59.336;17.998;2023-02-15T05:23:12;52234.88;;;-145.37;86.19
13486;BME280;6815;59.336;17.998;2023-02-15T05:25:38;52202.94;;;-145.37;86.12
13486;BME280;6815;59.336;17.998;2023-02-15T05:28:24;52206.94;;;-145.37;85.88
13486;BME280;6815;59.336;17.998;2023-02-15T05:33:46;52190.97;;;-145.37;85.67
13486;BME280;6815;59.336;17.998;2023-02-15T05:36:13;52228.88;;;-145.37;85.18
13486;BME280;6815;59.336;17.998;2023-02-15T05:38:39;52214.91;;;-145.37;85.60
13486;BME280;6815;59.336;17.998;2023-02-15T05:41:08;52216.91;;;-145.37;85.05
13486;BME280;6815;59.336;17.998;2023-02-15T05:43:34;52232.88;;;-145.37;84.70
13486;BME280;6815;59.336;17.998;2023-02-15T05:46:00;52258.84;;;-145.37;84.71
13486;BME280;6815;59.336;17.998;2023-02-15T05:48:27;52226.91;;;-145.37;84.47
13486;BME280;6815;59.336;17.998;2023-02-15T05:51:09;52248.84;;;-145.37;84.48
13486;BME280;6815;59.336;17.998;2023-02-15T05:53:37;52230.88;;;-145.37;85.32
13486;BME280;6815;59.336;17.998;2023-02-15T05:56:04;52182.97;;;-145.37;84.81
13486;BME280;6815;59.336;17.998;2023-02-15T05:58:39;52216.91;;;-145.37;85.07
13486;BME280;6815;59.336;17.998;2023-02-15T06:01:18;52240.88;;;-145.37;84.87
13486;BME280;6815;59.336;17.998;2023-02-15T06:03:45;52270.81;;;-145.37;84.75
13486;BME280;6815;59.336;17.998;2023-02-15T06:06:11;52268.81;;;-145.37;85.27
13486;BME280;6815;59.336;17.998;2023-02-15T06:08:40;52208.94;;;-145.37;84.67
13486;BME280;6815;59.336;17.998;2023-02-15T06:11:07;52214.91;;;-145.37;85.21
13486;BME280;6815;59.336;17.998;2023-02-15T06:13:35;52258.84;;;-145.37;84.52
13486;BME280;6815;59.336;17.998;2023-02-15T06:16:06;52192.97;;;-145.37;84.23
13486;BME280;6815;59.336;17.998;2023-02-15T06:18:32;52266.81;;;-145.37;84.60
13486;BME280;6815;59.336;17.998;2023-02-15T06:20:59;52326.72;;;-145.37;84.95
13486;BME280;6815;59.336;17.998;2023-02-15T06:23:27;52254.84;;;-145.37;84.49
13486;BME280;6815;59.336;17.998;2023-02-15T06:25:53;52200.94;;;-145.37;84.83
13486;BME280;6815;59.336;17.998;2023-02-15T06:28:19;52222.91;;;-145.37;84.31
13486;BME280;6815;59.336;17.998;2023-02-15T06:30:45;52232.88;;;-145.37;84.77
13486;BME280;6815;59.336;17.998;2023-02-15T06:33:11;52226.91;;;-145.37;84.88
13486;BME280;6815;59.336;17.998;2023-02-15T06:35:36;52288.78;;;-145.37;83.99
13486;BME280;6815;59.336;17.998;2023-02-15T06:38:02;52264.81;;;-145.37;83.78
13486;BME280;6815;59.336;17.998;2023-02-15T06:40:27;52252.84;;;-145.37;83.65
13486;BME280;6815;59.336;17.998;2023-02-15T06:42:53;52232.88;;;-145.37;84.04
13486;BME280;6815;59.336;17.998;2023-02-15T06:45:19;52208.94;;;-145.37;84.34
13486;BME280;6815;59.336;17.998;2023-02-15T06:47:44;52258.84;;;-145.37;84.98
13486;BME280;6815;59.336;17.998;2023-02-15T06:50:10;52240.88;;;-145.37;84.39
13486;BME280;6815;59.336;17.998;2023-02-15T06:52:36;52226.91;;;-145.37;84.15
13486;BME280;6815;59.336;17.998;2023-02-15T06:55:04;52222.91;;;-145.37;84.14
13486;BME280;6815;59.336;17.998;2023-02-15T06:57:31;52256.84;;;-145.37;84.38
13486;BME280;6815;59.336;17.998;2023-02-15T06:59:58;52262.81;;;-145.37;84.08
13486;BME280;6815;59.336;17.998;2023-02-15T07:02:23;52242.88;;;-145.37;84.40
13486;BME280;6815;59.336;17.998;2023-02-15T07:04:56;52240.88;;;-145.37;84.06
13486;BME280;6815;59.336;17.998;2023-02-15T07:07:22;52274.81;;;-145.37;84.27
13486;BME280;6815;59.336;17.998;2023-02-15T07:09:47;52220.91;;;-145.37;84.28
13486;BME280;6815;59.336;17.998;2023-02-15T07:12:13;52214.91;;;-145.37;83.93
13486;BME280;6815;59.336;17.998;2023-02-15T07:14:58;52242.88;;;-145.37;84.87
13486;BME280;6815;59.336;17.998;2023-02-15T07:17:23;52234.88;;;-145.37;84.49
13486;BME280;6815;59.336;17.998;2023-02-15T07:19:49;52200.94;;;-145.37;84.36
13486;BME280;6815;59.336;17.998;2023-02-15T07:22:15;52228.88;;;-145.37;84.96
13486;BME280;6815;59.336;17.998;2023-02-15T07:24:40;52264.81;;;-145.37;85.13
13486;BME280;6815;59.336;17.998;2023-02-15T07:27:09;52240.88;;;-145.37;85.40
13486;BME280;6815;59.336;17.998;2023-02-15T07:29:34;52250.84;;;-145.37;84.60
13486;BME280;6815;59.336;17.998;2023-02-15T07:32:00;52212.91;;;-145.37;85.15
13486;BME280;6815;59.336;17.998;2023-02-15T07:34:25;52204.94;;;-145.37;84.99
13486;BME280;6815;59.336;17.998;2023-02-15T07:36:51;52220.91;;;-145.37;85.12
13486;BME280;6815;59.336;17.998;2023-02-15T07:39:17;52246.84;;;-145.37;85.26
13486;BME280;6815;59.336;17.998;2023-02-15T07:41:42;52264.81;;;-145.37;84.74
13486;BME280;6815;59.336;17.998;2023-02-15T07:44:14;52212.91;;;-145.37;84.84
13486;BME280;6815;59.336;17.998;2023-02-15T07:46:40;52216.91;;;-145.37;84.85
13486;BME280;6815;59.336;17.998;2023-02-15T07:49:06;52266.81;;;-145.37;84.70
13486;BME280;6815;59.336;17.998;2023-02-15T07:51:31;52274.81;;;-145.37;85.06
13486;BME280;6815;59.336;17.998;2023-02-15T07:53:57;52252.84;;;-145.37;84.74
13486;BME280;6815;59.336;17.998;2023-02-15T07:56:22;52244.84;;;-145.37;84.58
13486;BME280;6815;59.336;17.998;2023-02-15T07:58:48;52252.84;;;-145.37;84.74
13486;BME280;6815;59.336;17.998;2023-02-15T08:01:18;52228.88;;;-145.37;84.54
13486;BME280;6815;59.336;17.998;2023-02-15T08:03:45;52240.88;;;-145.37;83.81
13486;BME280;6815;59.336;17.998;2023-02-15T08:06:10;52254.84;;;-145.37;83.62
13486;BME280;6815;59.336;17.998;2023-02-15T08:08:40;52256.84;;;-145.37;84.33
13486;BME280;6815;59.336;17.998;2023-02-15T08:16:34;52248.84;;;-145.37;83.50
13486;BME280;6815;59.336;17.998;2023-02-15T08:19:21;52262.81;;;-145.37;83.58
13486;BME280;6815;59.336;17.998;2023-02-15T08:21:58;52214.91;;;-145.37;83.72
13486;BME280;6815;59.336;17.998;2023-02-15T08:24:29;52224.91;;;-145.37;83.30
13486;BME280;6815;59.336;17.998;2023-02-15T08:26:55;52280.78;;;-145.37;83.76
13486;BME280;6815;59.336;17.998;2023-02-15T08:29:25;52230.88;;;-145.37;83.53
13486;BME280;6815;59.336;17.998;2023-02-15T08:31:56;52216.91;;;-145.37;83.78
13486;BME280;6815;59.336;17.998;2023-02-15T08:34:29;52222.91;;;-145.37;83.98
13486;BME280;6815;59.336;17.998;2023-02-15T08:36:55;52228.88;;;-145.37;83.70
13486;BME280;6815;59.336;17.998;2023-02-15T08:39:20;52256.84;;;-145.37;83.84
13486;BME280;6815;59.336;17.998;2023-02-15T08:41:47;52240.88;;;-145.37;83.70
13486;BME280;6815;59.336;17.998;2023-02-15T08:44:17;52280.78;;;-145.37;84.27
13486;BME280;6815;59.336;17.998;2023-02-15T08:46:45;52248.84;;;-145.37;84.37
13486;BME280;6815;59.336;17.998;2023-02-15T08:49:13;52210.91;;;-145.37;83.96
13486;BME280;6815;59.336;17.998;2023-02-15T08:51:40;52196.94;;;-145.37;83.95
13486;BME280;6815;59.336;17.998;2023-02-15T08:54:09;52250.84;;;-145.37;83.76
13486;BME280;6815;59.336;17.998;2023-02-15T08:56:38;52232.88;;;-145.37;83.66
13486;BME280;6815;59.336;17.998;2023-02-15T08:59:04;52210.91;;;-145.37;83.58
13486;BME280;6815;59.336;17.998;2023-02-15T09:01:33;52242.88;;;-145.37;83.45
13486;BME280;6815;59.336;17.998;2023-02-15T09:04:01;52210.91;;;-145.37;83.59
13486;BME280;6815;59.336;17.998;2023-02-15T09:06:27;52216.91;;;-145.37;83.05
13486;BME280;6815;59.336;17.998;2023-02-15T09:08:53;52246.84;;;-145.37;82.96
13486;BME280;6815;59.336;17.998;2023-02-15T09:11:21;52200.94;;;-145.37;82.67
13486;BME280;6815;59.336;17.998;2023-02-15T09:14:02;52262.81;;;-145.37;83.36
13486;BME280;6815;59.336;17.998;2023-02-15T09:16:30;52316.72;;;-145.37;82.90
13486;BME280;6815;59.336;17.998;2023-02-15T09:18:58;52216.91;;;-145.37;82.86
13486;BME280;6815;59.336;17.998;2023-02-15T09:21:26;52274.81;;;-145.37;83.12
13486;BME280;6815;59.336;17.998;2023-02-15T09:24:00;52258.84;;;-145.37;82.78
13486;BME280;6815;59.336;17.998;2023-02-15T09:26:29;52208.94;;;-145.37;82.19
13486;BME280;6815;59.336;17.998;2023-02-15T09:28:58;52222.91;;;-145.37;82.02
13486;BME280;6815;59.336;17.998;2023-02-15T09:31:40;52194.94;;;-145.37;82.06
13486;BME280;6815;59.336;17.998;2023-02-15T09:34:09;52206.94;;;-145.37;82.38
13486;BME280;6815;59.336;17.998;2023-02-15T09:36:36;52226.91;;;-145.37;82.81
13486;BME280;6815;59.336;17.998;2023-02-15T09:39:11;52240.88;;;-145.37;82.78
13486;BME280;6815;59.336;17.998;2023-02-15T09:52:55;52280.78;;;-145.37;81.54
13486;BME280;6815;59.336;17.998;2023-02-15T10:17:16;52230.88;;;-145.37;81.78
13486;BME280;6815;59.336;17.998;2023-02-15T10:28:31;52208.94;;;-145.37;80.52
13486;BME280;6815;59.336;17.998;2023-02-15T10:33:42;52250.84;;;-145.37;79.84
13486;BME280;6815;59.336;17.998;2023-02-15T10:41:38;52286.78;;;-145.37;79.28
13486;BME280;6815;59.336;17.998;2023-02-15T10:52:59;52234.88;;;-145.37;80.50
13486;BME280;6815;59.336;17.998;2023-02-15T10:58:33;52240.88;;;-145.37;79.81
13486;BME280;6815;59.336;17.998;2023-02-15T11:02:04;52196.94;;;-145.37;79.34
13486;BME280;6815;59.336;17.998;2023-02-15T11:06:49;52224.91;;;-145.37;80.18
13486;BME280;6815;59.336;17.998;2023-02-15T11:09:18;52270.81;;;-145.37;80.51
13486;BME280;6815;59.336;17.998;2023-02-15T11:11:50;52242.88;;;-145.37;80.51
13486;BME280;6815;59.336;17.998;2023-02-15T11:17:05;52234.88;;;-145.37;79.94
13486;BME280;6815;59.336;17.998;2023-02-15T11:20:11;52276.81;;;-145.37;80.58
13486;BME280;6815;59.336;17.998;2023-02-15T11:22:34;52198.94;;;-145.37;80.49
13486;BME280;6815;59.336;17.998;2023-02-15T11:25:01;52238.88;;;-145.37;80.65
13486;BME280;6815;59.336;17.998;2023-02-15T11:27:33;52254.84;;;-145.37;80.05
13486;BME280;6815;59.336;17.998;2023-02-15T11:30:10;52262.81;;;-145.37;80.81
13486;BME280;6815;59.336;17.998;2023-02-15T11:32:46;52246.84;;;-145.37;81.44
13486;BME280;6815;59.336;17.998;2023-02-15T11:37:50;52218.91;;;-145.37;81.72
13486;BME280;6815;59.336;17.998;2023-02-15T11:43:02;52242.88;;;-145.37;81.50
13486;BME280;6815;59.336;17.998;2023-02-15T11:45:30;52226.91;;;-145.37;81.41
13486;BME280;6815;59.336;17.998;2023-02-15T11:47:57;52238.88;;;-145.37;80.32
13486;BME280;6815;59.336;17.998;2023-02-15T11:50:25;52216.91;;;-145.37;80.21
13486;BME280;6815;59.336;17.998;2023-02-15T11:52:52;52260.84;;;-145.37;81.16
13486;BME280;6815;59.336;17.998;2023-02-15T11:55:21;52222.91;;;-145.37;80.32
13486;BME280;6815;59.336;17.998;2023-02-15T11:57:59;52234.88;;;-145.37;80.00
13486;BME280;6815;59.336;17.998;2023-02-15T12:00:35;52222.91;;;-145.37;79.79
13486;BME280;6815;59.336;17.998;2023-02-15T12:03:21;52252.84;;;-145.37;79.93
13486;BME280;6815;59.336;17.998;2023-02-15T12:05:53;52202.94;;;-145.37;80.05
13486;BME280;6815;59.336;17.998;2023-02-15T12:08:21;52270.81;;;-145.37;79.45
13486;BME280;6815;59.336;17.998;2023-02-15T12:13:20;52270.81;;;-145.37;79.45
13486;BME280;6815;59.336;17.998;2023-02-15T12:15:48;52230.88;;;-145.37;79.66
13486;BME280;6815;59.336;17.998;2023-02-15T12:21:01;52238.88;;;-145.37;79.72
13486;BME280;6815;59.336;17.998;2023-02-15T12:23:28;52280.78;;;-145.37;81.22
13486;BME280;6815;59.336;17.998;2023-02-15T12:25:56;52220.91;;;-145.37;80.96
13486;BME280;6815;59.336;17.998;2023-02-15T12:30:58;52224.91;;;-145.37;81.02
13486;BME280;6815;59.336;17.998;2023-02-15T12:33:41;52224.91;;;-145.37;80.86
13486;BME280;6815;59.336;17.998;2023-02-15T12:36:29;52208.94;;;-145.37;81.38
13486;BME280;6815;59.336;17.998;2023-02-15T12:39:04;52252.84;;;-145.37;81.21
13486;BME280;6815;59.336;17.998;2023-02-15T12:41:31;52228.88;;;-145.37;82.20
13486;BME280;6815;59.336;17.998;2023-02-15T12:44:29;52254.84;;;-145.37;82.48
13486;BME280;6815;59.336;17.998;2023-02-15T12:49:35;52224.91;;;-145.37;81.75
13486;BME280;6815;59.336;17.998;2023-02-15T12:54:43;52280.78;;;-145.37;81.21
13486;BME280;6815;59.336;17.998;2023-02-15T12:57:29;52250.84;;;-145.37;82.35
13486;BME280;6815;59.336;17.998;2023-02-15T13:02:36;52258.84;;;-145.37;82.82
13486;BME280;6815;59.336;17.998;2023-02-15T13:05:23;52248.84;;;-145.37;83.46
13486;BME280;6815;59.336;17.998;2023-02-15T13:08:13;52242.88;;;-145.37;83.26
13486;BME280;6815;59.336;17.998;2023-02-15T13:10:51;52266.81;;;-145.37;82.47
13486;BME280;6815;59.336;17.998;2023-02-15T13:13:20;52258.84;;;-145.37;82.81
13486;BME280;6815;59.336;17.998;2023-02-15T13:15:53;52312.72;;;-145.37;81.90
13486;BME280;6815;59.336;17.998;2023-02-15T13:18:30;52248.84;;;-145.37;82.13
13486;BME280;6815;59.336;17.998;2023-02-15T13:20:56;52234.88;;;-145.37;82.90
13486;BME280;6815;59.336;17.998;2023-02-15T13:23:28;52248.84;;;-145.37;81.86
13486;BME280;6815;59.336;17.998;2023-02-15T13:26:04;52244.84;;;-145.37;82.08
13486;BME280;6815;59.336;17.998;2023-02-15T13:28:42;52242.88;;;-145.37;83.39
13486;BME280;6815;59.336;17.998;2023-02-15T13:31:15;52300.75;;;-145.37;82.91
13486;BME280;6815;59.336;17.998;2023-02-15T13:36:33;52224.91;;;-145.37;82.24
13486;BME280;6815;59.336;17.998;2023-02-15T13:44:54;52244.84;;;-145.37;84.31
13486;BME280;6815;59.336;17.998;2023-02-15T13:47:46;52222.91;;;-145.37;83.44
13486;BME280;6815;59.336;17.998;2023-02-15T13:55:37;52228.88;;;-145.37;83.14
13486;BME280;6815;59.336;17.998;2023-02-15T14:21:26;52258.84;;;-145.37;82.88
13486;BME280;6815;59.336;17.998;2023-02-15T14:31:43;52196.94;;;-145.37;85.13
13486;BME280;6815;59.336;17.998;2023-02-15T14:34:22;52258.84;;;-145.37;84.27
13486;BME280;6815;59.336;17.998;2023-02-15T14:36:50;52246.84;;;-145.37;84.20
13486;BME280;6815;59.336;17.998;2023-02-15T14:39:41;52236.88;;;-145.37;85.02
13486;BME280;6815;59.336;17.998;2023-02-15T14:42:40;52240.88;;;-145.37;84.89
13486;BME280;6815;59.336;17.998;2023-02-15T14:48:03;52234.88;;;-145.37;85.35
13486;BME280;6815;59.336;17.998;2023-02-15T14:55:39;52210.91;;;-145.37;84.83
13486;BME280;6815;59.336;17.998;2023-02-15T14:58:10;52272.81;;;-145.37;84.93
13486;BME280;6815;59.336;17.998;2023-02-15T15:00:38;52234.88;;;-145.37;83.19
13486;BME280;6815;59.336;17.998;2023-02-15T15:03:30;52208.94;;;-145.37;82.84
13486;BME280;6815;59.336;17.998;2023-02-15T15:05:59;52258.84;;;-145.37;82.72
13486;BME280;6815;59.336;17.998;2023-02-15T15:08:32;52230.88;;;-145.37;82.69
13486;BME280;6815;59.336;17.998;2023-02-15T15:14:00;52270.81;;;-145.37;84.25
13486;BME280;6815;59.336;17.998;2023-02-15T15:16:30;52240.88;;;-145.37;83.38
13486;BME280;6815;59.336;17.998;2023-02-15T15:18:56;52248.84;;;-145.37;84.09
13486;BME280;6815;59.336;17.998;2023-02-15T15:28:05;52228.88;;;-145.37;84.50
13486;BME280;6815;59.336;17.998;2023-02-15T15:32:57;52248.84;;;-145.37;84.42
13486;BME280;6815;59.336;17.998;2023-02-15T15:49:12;52226.91;;;-145.37;84.50
13486;BME280;6815;59.336;17.998;2023-02-15T15:51:42;52282.78;;;-145.37;84.39
13486;BME280;6815;59.336;17.998;2023-02-15T15:54:15;52186.97;;;-145.37;83.51
13486;BME280;6815;59.336;17.998;2023-02-15T15:56:44;52258.84;;;-145.37;84.03
13486;BME280;6815;59.336;17.998;2023-02-15T15:59:19;52232.88;;;-145.37;83.73
13486;BME280;6815;59.336;17.998;2023-02-15T16:01:47;52260.84;;;-145.37;84.44
13486;BME280;6815;59.336;17.998;2023-02-15T16:04:25;52226.91;;;-145.37;85.27
13486;BME280;6815;59.336;17.998;2023-02-15T16:06:52;52288.78;;;-145.37;84.97
13486;BME280;6815;59.336;17.998;2023-02-15T16:09:21;52240.88;;;-145.37;85.98
13486;BME280;6815;59.336;17.998;2023-02-15T16:11:49;52232.88;;;-145.37;85.56
13486;BME280;6815;59.336;17.998;2023-02-15T16:14:39;52228.88;;;-145.37;85.19
13486;BME280;6815;59.336;17.998;2023-02-15T16:17:14;52252.84;;;-145.37;86.22
13486;BME280;6815;59.336;17.998;2023-02-15T16:19:44;52214.91;;;-145.37;85.50
13486;BME280;6815;59.336;17.998;2023-02-15T16:22:16;52212.91;;;-145.37;85.53
13486;BME280;6815;59.336;17.998;2023-02-15T16:25:23;52256.84;;;-145.37;85.76
13486;BME280;6815;59.336;17.998;2023-02-15T16:27:53;52300.75;;;-145.37;86.31